sensor_id;sensor_type;location;lat;lon;timestamp;P1;durP1;ratioP1;P2;durP2;ratioP2
22929;SDS011;11630;42.660;23.292;2022-12-26T00:02:12;17.83;;;11.33;;
22929;SDS011;11630;42.660;23.292;2022-12-26T00:04:45;14.40;;;11.03;;
22929;SDS011;11630;42.660;23.292;2022-12-26T00:07:16;16.30;;;10.40;;
22929;SDS011;11630;42.660;23.292;2022-12-26T00:09:47;17.13;;;11.13;;
22929;SDS011;11630;42.660;23.292;2022-12-26T00:12:18;15.63;;;10.60;;
22929;SDS011;11630;42.660;23.292;2022-12-26T00:14:50;21.77;;;11.23;;
22929;SDS011;11630;42.660;23.292;2022-12-26T00:17:20;14.80;;;10.00;;
22929;SDS011;11630;42.660;23.292;2022-12-26T00:19:51;15.57;;;10.50;;
22929;SDS011;11630;42.660;23.292;2022-12-26T00:22:22;15.20;;;10.47;;
22929;SDS011;11630;42.660;23.292;2022-12-26T00:24:53;18.30;;;9.97;;
22929;SDS011;11630;42.660;23.292;2022-12-26T00:27:24;15.50;;;9.43;;
22929;SDS011;11630;42.660;23.292;2022-12-26T00:29:55;12.80;;;9.60;;
22929;SDS011;11630;42.660;23.292;2022-12-26T00:32:26;20.33;;;10.27;;
22929;SDS011;11630;42.660;23.292;2022-12-26T00:34:56;16.40;;;9.87;;
22929;SDS011;11630;42.660;23.292;2022-12-26T00:37:27;15.00;;;9.70;;
22929;SDS011;11630;42.660;23.292;2022-12-26T00:39:58;13.43;;;9.40;;
22929;SDS011;11630;42.660;23.292;2022-12-26T00:42:29;13.53;;;10.00;;
22929;SDS011;11630;42.660;23.292;2022-12-26T00:45:00;14.60;;;9.30;;
22929;SDS011;11630;42.660;23.292;2022-12-26T00:47:31;16.27;;;9.57;;
22929;SDS011;11630;42.660;23.292;2022-12-26T00:50:02;16.30;;;10.20;;
22929;SDS011;11630;42.660;23.292;2022-12-26T00:52:33;14.60;;;9.53;;
22929;SDS011;11630;42.660;23.292;2022-12-26T00:55:04;16.77;;;9.23;;
22929;SDS011;11630;42.660;23.292;2022-12-26T00:57:34;12.90;;;8.93;;
22929;SDS011;11630;42.660;23.292;2022-12-26T01:00:06;14.47;;;9.57;;
22929;SDS011;11630;42.660;23.292;2022-12-26T01:02:38;11.73;;;8.47;;
22929;SDS011;11630;42.660;23.292;2022-12-26T01:05:09;11.40;;;8.83;;
22929;SDS011;11630;42.660;23.292;2022-12-26T01:07:40;11.80;;;8.60;;
22929;SDS011;11630;42.660;23.292;2022-12-26T01:10:11;14.90;;;9.23;;
22929;SDS011;11630;42.660;23.292;2022-12-26T01:12:41;13.40;;;8.27;;
22929;SDS011;11630;42.660;23.292;2022-12-26T01:15:12;10.20;;;7.67;;
22929;SDS011;11630;42.660;23.292;2022-12-26T01:17:42;14.07;;;8.17;;
22929;SDS011;11630;42.660;23.292;2022-12-26T01:20:14;17.73;;;9.87;;
22929;SDS011;11630;42.660;23.292;2022-12-26T01:22:44;11.90;;;8.13;;
22929;SDS011;11630;42.660;23.292;2022-12-26T01:25:15;11.67;;;7.90;;
22929;SDS011;11630;42.660;23.292;2022-12-26T01:27:47;16.93;;;9.93;;
22929;SDS011;11630;42.660;23.292;2022-12-26T01:30:17;13.37;;;8.00;;
22929;SDS011;11630;42.660;23.292;2022-12-26T01:32:48;11.03;;;8.67;;
22929;SDS011;11630;42.660;23.292;2022-12-26T01:35:20;14.97;;;8.00;;
22929;SDS011;11630;42.660;23.292;2022-12-26T01:37:50;15.40;;;8.97;;
22929;SDS011;11630;42.660;23.292;2022-12-26T01:40:21;12.80;;;9.30;;
22929;SDS011;11630;42.660;23.292;2022-12-26T01:42:53;10.77;;;7.97;;
22929;SDS011;11630;42.660;23.292;2022-12-26T01:45:24;13.30;;;8.77;;
22929;SDS011;11630;42.660;23.292;2022-12-26T01:50:53;18.70;;;12.10;;
22929;SDS011;11630;42.660;23.292;2022-12-26T01:53:35;18.27;;;10.07;;
22929;SDS011;11630;42.660;23.292;2022-12-26T01:56:09;13.30;;;8.70;;
22929;SDS011;11630;42.660;23.292;2022-12-26T01:58:45;12.37;;;8.73;;
22929;SDS011;11630;42.660;23.292;2022-12-26T02:01:15;10.37;;;8.00;;
22929;SDS011;11630;42.660;23.292;2022-12-26T02:03:49;15.90;;;8.67;;
22929;SDS011;11630;42.660;23.292;2022-12-26T02:06:35;14.60;;;9.20;;
22929;SDS011;11630;42.660;23.292;2022-12-26T02:09:06;11.77;;;8.90;;
22929;SDS011;11630;42.660;23.292;2022-12-26T02:11:40;15.10;;;9.63;;
22929;SDS011;11630;42.660;23.292;2022-12-26T02:14:10;15.87;;;10.93;;
22929;SDS011;11630;42.660;23.292;2022-12-26T02:16:41;14.80;;;10.43;;
22929;SDS011;11630;42.660;23.292;2022-12-26T02:19:20;15.47;;;9.03;;
22929;SDS011;11630;42.660;23.292;2022-12-26T02:22:01;15.43;;;9.87;;
22929;SDS011;11630;42.660;23.292;2022-12-26T02:24:51;16.67;;;10.50;;
22929;SDS011;11630;42.660;23.292;2022-12-26T02:36:13;17.23;;;11.30;;
22929;SDS011;11630;42.660;23.292;2022-12-26T02:44:32;17.43;;;12.20;;
22929;SDS011;11630;42.660;23.292;2022-12-26T02:47:30;21.47;;;14.13;;
22929;SDS011;11630;42.660;23.292;2022-12-26T02:56:31;26.63;;;12.87;;
22929;SDS011;11630;42.660;23.292;2022-12-26T02:59:27;19.80;;;12.30;;
22929;SDS011;11630;42.660;23.292;2022-12-26T03:02:23;19.80;;;12.63;;
22929;SDS011;11630;42.660;23.292;2022-12-26T03:05:15;21.97;;;13.73;;
22929;SDS011;11630;42.660;23.292;2022-12-26T03:08:02;19.17;;;12.27;;
22929;SDS011;11630;42.660;23.292;2022-12-26T03:10:51;26.47;;;13.93;;
22929;SDS011;11630;42.660;23.292;2022-12-26T03:13:40;19.13;;;12.10;;
22929;SDS011;11630;42.660;23.292;2022-12-26T03:16:14;21.13;;;13.63;;
22929;SDS011;11630;42.660;23.292;2022-12-26T03:19:04;18.20;;;12.37;;
22929;SDS011;11630;42.660;23.292;2022-12-26T03:21:37;22.67;;;12.63;;
22929;SDS011;11630;42.660;23.292;2022-12-26T03:24:10;21.20;;;12.37;;
22929;SDS011;11630;42.660;23.292;2022-12-26T03:26:47;18.00;;;11.87;;
22929;SDS011;11630;42.660;23.292;2022-12-26T03:29:16;17.27;;;10.77;;
22929;SDS011;11630;42.660;23.292;2022-12-26T03:32:05;20.53;;;12.53;;
22929;SDS011;11630;42.660;23.292;2022-12-26T03:34:42;18.47;;;11.97;;
22929;SDS011;11630;42.660;23.292;2022-12-26T03:49:26;15.90;;;10.87;;
22929;SDS011;11630;42.660;23.292;2022-12-26T03:52:16;19.43;;;10.80;;
22929;SDS011;11630;42.660;23.292;2022-12-26T03:55:14;18.87;;;10.93;;
22929;SDS011;11630;42.660;23.292;2022-12-26T04:01:10;20.53;;;11.37;;
22929;SDS011;11630;42.660;23.292;2022-12-26T04:03:57;16.57;;;11.83;;
22929;SDS011;11630;42.660;23.292;2022-12-26T04:06:50;19.10;;;13.50;;
22929;SDS011;11630;42.660;23.292;2022-12-26T04:09:55;19.57;;;13.50;;
22929;SDS011;11630;42.660;23.292;2022-12-26T04:12:44;25.90;;;14.80;;
22929;SDS011;11630;42.660;23.292;2022-12-26T04:15:43;23.63;;;13.60;;
22929;SDS011;11630;42.660;23.292;2022-12-26T04:21:39;19.07;;;13.13;;
22929;SDS011;11630;42.660;23.292;2022-12-26T04:24:27;22.83;;;14.33;;
22929;SDS011;11630;42.660;23.292;2022-12-26T04:27:15;21.83;;;13.83;;
22929;SDS011;11630;42.660;23.292;2022-12-26T04:30:06;18.97;;;13.07;;
22929;SDS011;11630;42.660;23.292;2022-12-26T04:32:54;21.23;;;13.47;;
22929;SDS011;11630;42.660;23.292;2022-12-26T04:35:58;23.57;;;15.90;;
22929;SDS011;11630;42.660;23.292;2022-12-26T04:38:42;25.63;;;15.03;;
22929;SDS011;11630;42.660;23.292;2022-12-26T04:41:30;22.83;;;13.60;;
22929;SDS011;11630;42.660;23.292;2022-12-26T04:44:17;19.10;;;12.73;;
22929;SDS011;11630;42.660;23.292;2022-12-26T04:46:48;22.53;;;13.83;;
22929;SDS011;11630;42.660;23.292;2022-12-26T04:49:21;31.97;;;18.70;;
22929;SDS011;11630;42.660;23.292;2022-12-26T04:52:08;27.37;;;18.43;;
22929;SDS011;11630;42.660;23.292;2022-12-26T04:54:38;31.07;;;18.97;;
22929;SDS011;11630;42.660;23.292;2022-12-26T04:57:09;38.57;;;21.00;;
22929;SDS011;11630;42.660;23.292;2022-12-26T04:59:40;28.50;;;18.47;;
22929;SDS011;11630;42.660;23.292;2022-12-26T05:02:11;33.93;;;20.00;;
22929;SDS011;11630;42.660;23.292;2022-12-26T05:04:58;30.53;;;18.17;;
22929;SDS011;11630;42.660;23.292;2022-12-26T05:07:45;32.40;;;18.60;;
22929;SDS011;11630;42.660;23.292;2022-12-26T05:10:32;28.40;;;18.63;;
22929;SDS011;11630;42.660;23.292;2022-12-26T05:13:03;31.77;;;18.07;;
22929;SDS011;11630;42.660;23.292;2022-12-26T05:15:34;29.17;;;17.97;;
22929;SDS011;11630;42.660;23.292;2022-12-26T05:18:21;32.27;;;19.07;;
22929;SDS011;11630;42.660;23.292;2022-12-26T05:21:11;27.63;;;18.27;;
22929;SDS011;11630;42.660;23.292;2022-12-26T05:23:59;25.93;;;17.37;;
22929;SDS011;11630;42.660;23.292;2022-12-26T05:26:46;36.23;;;18.80;;
22929;SDS011;11630;42.660;23.292;2022-12-26T05:29:33;33.50;;;18.03;;
22929;SDS011;11630;42.660;23.292;2022-12-26T05:32:04;31.23;;;18.23;;
22929;SDS011;11630;42.660;23.292;2022-12-26T05:34:35;33.17;;;16.97;;
22929;SDS011;11630;42.660;23.292;2022-12-26T05:37:06;30.80;;;17.63;;
22929;SDS011;11630;42.660;23.292;2022-12-26T05:39:38;23.70;;;16.30;;
22929;SDS011;11630;42.660;23.292;2022-12-26T05:42:09;29.07;;;17.03;;
22929;SDS011;11630;42.660;23.292;2022-12-26T05:44:40;22.67;;;16.27;;
22929;SDS011;11630;42.660;23.292;2022-12-26T05:47:10;28.40;;;17.37;;
22929;SDS011;11630;42.660;23.292;2022-12-26T05:49:40;25.17;;;15.17;;
22929;SDS011;11630;42.660;23.292;2022-12-26T05:52:11;29.77;;;15.33;;
22929;SDS011;11630;42.660;23.292;2022-12-26T05:54:42;26.57;;;15.17;;
22929;SDS011;11630;42.660;23.292;2022-12-26T05:57:14;23.93;;;15.07;;
22929;SDS011;11630;42.660;23.292;2022-12-26T05:59:45;24.70;;;15.67;;
22929;SDS011;11630;42.660;23.292;2022-12-26T06:02:16;25.20;;;15.53;;
22929;SDS011;11630;42.660;23.292;2022-12-26T06:04:47;23.80;;;15.50;;
22929;SDS011;11630;42.660;23.292;2022-12-26T06:07:18;24.67;;;15.70;;
22929;SDS011;11630;42.660;23.292;2022-12-26T06:09:49;33.07;;;14.57;;
22929;SDS011;11630;42.660;23.292;2022-12-26T06:12:22;18.33;;;14.23;;
22929;SDS011;11630;42.660;23.292;2022-12-26T06:14:53;26.90;;;14.80;;
22929;SDS011;11630;42.660;23.292;2022-12-26T06:17:24;18.90;;;13.70;;
22929;SDS011;11630;42.660;23.292;2022-12-26T06:19:55;23.33;;;14.67;;
22929;SDS011;11630;42.660;23.292;2022-12-26T06:22:27;19.97;;;13.87;;
22929;SDS011;11630;42.660;23.292;2022-12-26T06:24:57;20.27;;;14.00;;
22929;SDS011;11630;42.660;23.292;2022-12-26T06:27:29;23.40;;;15.03;;
22929;SDS011;11630;42.660;23.292;2022-12-26T06:29:59;24.30;;;15.30;;
22929;SDS011;11630;42.660;23.292;2022-12-26T06:32:30;24.17;;;15.17;;
22929;SDS011;11630;42.660;23.292;2022-12-26T06:35:01;26.90;;;14.47;;
22929;SDS011;11630;42.660;23.292;2022-12-26T06:37:32;25.27;;;14.60;;
22929;SDS011;11630;42.660;23.292;2022-12-26T06:40:04;22.90;;;15.30;;
22929;SDS011;11630;42.660;23.292;2022-12-26T06:42:37;26.93;;;15.67;;
22929;SDS011;11630;42.660;23.292;2022-12-26T06:45:08;25.73;;;18.87;;
22929;SDS011;11630;42.660;23.292;2022-12-26T06:47:40;32.73;;;17.87;;
22929;SDS011;11630;42.660;23.292;2022-12-26T06:50:11;24.93;;;16.63;;
22929;SDS011;11630;42.660;23.292;2022-12-26T06:52:42;29.53;;;19.37;;
22929;SDS011;11630;42.660;23.292;2022-12-26T06:55:13;26.83;;;17.40;;
22929;SDS011;11630;42.660;23.292;2022-12-26T06:57:44;29.90;;;19.33;;
22929;SDS011;11630;42.660;23.292;2022-12-26T07:00:15;31.03;;;18.27;;
22929;SDS011;11630;42.660;23.292;2022-12-26T07:02:48;28.93;;;18.30;;
22929;SDS011;11630;42.660;23.292;2022-12-26T07:05:19;28.77;;;17.40;;
22929;SDS011;11630;42.660;23.292;2022-12-26T07:07:50;31.00;;;18.77;;
22929;SDS011;11630;42.660;23.292;2022-12-26T07:10:20;29.50;;;17.87;;
22929;SDS011;11630;42.660;23.292;2022-12-26T07:12:50;27.07;;;18.00;;
22929;SDS011;11630;42.660;23.292;2022-12-26T07:15:21;27.03;;;18.30;;
22929;SDS011;11630;42.660;23.292;2022-12-26T07:17:52;33.67;;;20.63;;
22929;SDS011;11630;42.660;23.292;2022-12-26T07:20:23;30.57;;;21.60;;
22929;SDS011;11630;42.660;23.292;2022-12-26T07:22:54;27.40;;;19.63;;
22929;SDS011;11630;42.660;23.292;2022-12-26T07:25:26;31.93;;;19.87;;
22929;SDS011;11630;42.660;23.292;2022-12-26T07:27:56;35.67;;;22.20;;
22929;SDS011;11630;42.660;23.292;2022-12-26T07:30:27;33.57;;;22.47;;
22929;SDS011;11630;42.660;23.292;2022-12-26T07:32:58;30.63;;;20.77;;
22929;SDS011;11630;42.660;23.292;2022-12-26T07:35:29;31.97;;;20.10;;
22929;SDS011;11630;42.660;23.292;2022-12-26T07:38:00;30.70;;;19.53;;
22929;SDS011;11630;42.660;23.292;2022-12-26T07:40:31;33.57;;;19.77;;
22929;SDS011;11630;42.660;23.292;2022-12-26T07:43:02;26.13;;;18.07;;
22929;SDS011;11630;42.660;23.292;2022-12-26T07:45:32;29.27;;;19.63;;
22929;SDS011;11630;42.660;23.292;2022-12-26T07:48:03;26.17;;;18.77;;
22929;SDS011;11630;42.660;23.292;2022-12-26T07:50:34;32.80;;;19.53;;
22929;SDS011;11630;42.660;23.292;2022-12-26T07:53:06;29.60;;;18.53;;
22929;SDS011;11630;42.660;23.292;2022-12-26T07:55:36;30.10;;;21.00;;
22929;SDS011;11630;42.660;23.292;2022-12-26T07:58:07;29.80;;;19.87;;
22929;SDS011;11630;42.660;23.292;2022-12-26T08:00:37;29.27;;;19.07;;
22929;SDS011;11630;42.660;23.292;2022-12-26T08:03:10;33.77;;;19.87;;
22929;SDS011;11630;42.660;23.292;2022-12-26T08:05:45;32.57;;;20.63;;
22929;SDS011;11630;42.660;23.292;2022-12-26T08:08:17;29.57;;;20.63;;
22929;SDS011;11630;42.660;23.292;2022-12-26T08:10:48;31.53;;;20.37;;
22929;SDS011;11630;42.660;23.292;2022-12-26T08:13:19;28.20;;;20.47;;
22929;SDS011;11630;42.660;23.292;2022-12-26T08:15:49;31.50;;;20.77;;
22929;SDS011;11630;42.660;23.292;2022-12-26T08:18:20;26.70;;;18.87;;
22929;SDS011;11630;42.660;23.292;2022-12-26T08:20:51;26.33;;;16.50;;
22929;SDS011;11630;42.660;23.292;2022-12-26T08:23:21;29.90;;;18.23;;
22929;SDS011;11630;42.660;23.292;2022-12-26T08:25:52;25.67;;;18.07;;
22929;SDS011;11630;42.660;23.292;2022-12-26T08:28:23;31.90;;;19.97;;
22929;SDS011;11630;42.660;23.292;2022-12-26T08:30:54;25.60;;;17.77;;
22929;SDS011;11630;42.660;23.292;2022-12-26T08:33:25;24.60;;;18.27;;
22929;SDS011;11630;42.660;23.292;2022-12-26T08:35:56;26.20;;;19.10;;
22929;SDS011;11630;42.660;23.292;2022-12-26T08:38:31;25.93;;;18.23;;
22929;SDS011;11630;42.660;23.292;2022-12-26T08:41:05;27.03;;;18.17;;
22929;SDS011;11630;42.660;23.292;2022-12-26T08:43:36;26.53;;;17.80;;
22929;SDS011;11630;42.660;23.292;2022-12-26T08:46:09;26.87;;;19.27;;
22929;SDS011;11630;42.660;23.292;2022-12-26T08:48:39;29.03;;;18.50;;
22929;SDS011;11630;42.660;23.292;2022-12-26T08:51:15;28.20;;;17.17;;
22929;SDS011;11630;42.660;23.292;2022-12-26T08:53:43;25.17;;;17.53;;
22929;SDS011;11630;42.660;23.292;2022-12-26T08:56:14;27.47;;;17.57;;
22929;SDS011;11630;42.660;23.292;2022-12-26T08:58:44;28.13;;;19.27;;
22929;SDS011;11630;42.660;23.292;2022-12-26T09:01:16;31.27;;;18.07;;
22929;SDS011;11630;42.660;23.292;2022-12-26T09:03:52;25.23;;;16.87;;
22929;SDS011;11630;42.660;23.292;2022-12-26T09:06:26;26.30;;;18.90;;
22929;SDS011;11630;42.660;23.292;2022-12-26T09:08:58;26.97;;;18.30;;
22929;SDS011;11630;42.660;23.292;2022-12-26T09:11:29;26.03;;;18.97;;
22929;SDS011;11630;42.660;23.292;2022-12-26T09:14:01;30.07;;;19.63;;
22929;SDS011;11630;42.660;23.292;2022-12-26T09:16:33;29.97;;;19.37;;
22929;SDS011;11630;42.660;23.292;2022-12-26T09:19:08;31.03;;;19.30;;
22929;SDS011;11630;42.660;23.292;2022-12-26T09:21:39;31.57;;;19.40;;
22929;SDS011;11630;42.660;23.292;2022-12-26T09:24:12;28.70;;;21.23;;
22929;SDS011;11630;42.660;23.292;2022-12-26T09:26:45;28.70;;;19.67;;
22929;SDS011;11630;42.660;23.292;2022-12-26T09:29:16;29.97;;;19.23;;
22929;SDS011;11630;42.660;23.292;2022-12-26T09:31:47;30.73;;;20.37;;
22929;SDS011;11630;42.660;23.292;2022-12-26T09:34:18;35.60;;;22.53;;
22929;SDS011;11630;42.660;23.292;2022-12-26T09:36:48;38.07;;;25.27;;
22929;SDS011;11630;42.660;23.292;2022-12-26T09:39:18;39.20;;;28.43;;
22929;SDS011;11630;42.660;23.292;2022-12-26T09:42:13;48.03;;;30.70;;
22929;SDS011;11630;42.660;23.292;2022-12-26T09:47:30;50.17;;;32.10;;
22929;SDS011;11630;42.660;23.292;2022-12-26T09:55:30;53.63;;;33.53;;
22929;SDS011;11630;42.660;23.292;2022-12-26T09:58:18;52.77;;;35.17;;
22929;SDS011;11630;42.660;23.292;2022-12-26T10:03:51;53.03;;;34.90;;
22929;SDS011;11630;42.660;23.292;2022-12-26T10:06:25;47.40;;;31.67;;
22929;SDS011;11630;42.660;23.292;2022-12-26T10:17:14;57.10;;;29.10;;
22929;SDS011;11630;42.660;23.292;2022-12-26T10:22:46;51.57;;;32.20;;
22929;SDS011;11630;42.660;23.292;2022-12-26T10:25:30;51.50;;;31.10;;
22929;SDS011;11630;42.660;23.292;2022-12-26T10:27:54;43.83;;;29.33;;
22929;SDS011;11630;42.660;23.292;2022-12-26T10:30:28;43.87;;;27.90;;
22929;SDS011;11630;42.660;23.292;2022-12-26T10:32:58;44.13;;;28.50;;
22929;SDS011;11630;42.660;23.292;2022-12-26T10:35:36;44.07;;;28.27;;
22929;SDS011;11630;42.660;23.292;2022-12-26T10:38:14;38.00;;;26.47;;
22929;SDS011;11630;42.660;23.292;2022-12-26T10:40:44;41.10;;;25.97;;
22929;SDS011;11630;42.660;23.292;2022-12-26T10:48:48;38.80;;;26.00;;
22929;SDS011;11630;42.660;23.292;2022-12-26T10:51:19;37.60;;;24.57;;
22929;SDS011;11630;42.660;23.292;2022-12-26T10:53:51;36.80;;;22.27;;
22929;SDS011;11630;42.660;23.292;2022-12-26T10:56:25;31.67;;;22.07;;
22929;SDS011;11630;42.660;23.292;2022-12-26T10:59:01;44.00;;;22.93;;
22929;SDS011;11630;42.660;23.292;2022-12-26T11:01:35;37.80;;;22.67;;
22929;SDS011;11630;42.660;23.292;2022-12-26T11:04:22;32.40;;;22.63;;
22929;SDS011;11630;42.660;23.292;2022-12-26T11:06:54;31.77;;;20.90;;
22929;SDS011;11630;42.660;23.292;2022-12-26T11:09:48;29.50;;;20.83;;
22929;SDS011;11630;42.660;23.292;2022-12-26T11:12:04;31.50;;;18.43;;
22929;SDS011;11630;42.660;23.292;2022-12-26T11:14:40;30.90;;;20.67;;
22929;SDS011;11630;42.660;23.292;2022-12-26T11:17:26;31.73;;;19.50;;
22929;SDS011;11630;42.660;23.292;2022-12-26T11:20:15;28.47;;;18.93;;
22929;SDS011;11630;42.660;23.292;2022-12-26T11:22:41;25.83;;;17.63;;
22929;SDS011;11630;42.660;23.292;2022-12-26T11:25:23;29.30;;;17.07;;
22929;SDS011;11630;42.660;23.292;2022-12-26T11:27:52;23.70;;;17.27;;
22929;SDS011;11630;42.660;23.292;2022-12-26T11:30:26;31.80;;;18.87;;
22929;SDS011;11630;42.660;23.292;2022-12-26T11:33:04;25.37;;;17.80;;
22929;SDS011;11630;42.660;23.292;2022-12-26T11:35:44;23.17;;;17.83;;
22929;SDS011;11630;42.660;23.292;2022-12-26T11:38:17;28.10;;;18.70;;
22929;SDS011;11630;42.660;23.292;2022-12-26T11:41:03;26.13;;;16.20;;
22929;SDS011;11630;42.660;23.292;2022-12-26T11:43:54;24.10;;;14.53;;
22929;SDS011;11630;42.660;23.292;2022-12-26T11:46:31;18.30;;;12.27;;
22929;SDS011;11630;42.660;23.292;2022-12-26T11:49:02;21.93;;;15.03;;
22929;SDS011;11630;42.660;23.292;2022-12-26T11:51:44;21.47;;;14.03;;
22929;SDS011;11630;42.660;23.292;2022-12-26T11:54:17;25.23;;;13.77;;
22929;SDS011;11630;42.660;23.292;2022-12-26T11:56:47;16.30;;;12.63;;
22929;SDS011;11630;42.660;23.292;2022-12-26T11:59:19;18.07;;;11.97;;
22929;SDS011;11630;42.660;23.292;2022-12-26T12:02:36;17.30;;;11.60;;
22929;SDS011;11630;42.660;23.292;2022-12-26T12:04:39;19.63;;;11.53;;
22929;SDS011;11630;42.660;23.292;2022-12-26T12:07:20;18.33;;;11.53;;
22929;SDS011;11630;42.660;23.292;2022-12-26T12:13:05;14.30;;;10.97;;
22929;SDS011;11630;42.660;23.292;2022-12-26T12:15:49;19.50;;;11.23;;
22929;SDS011;11630;42.660;23.292;2022-12-26T12:21:43;20.17;;;11.83;;
22929;SDS011;11630;42.660;23.292;2022-12-26T12:24:37;23.63;;;11.67;;
22929;SDS011;11630;42.660;23.292;2022-12-26T12:27:12;24.00;;;12.93;;
22929;SDS011;11630;42.660;23.292;2022-12-26T12:43:48;20.60;;;10.03;;
22929;SDS011;11630;42.660;23.292;2022-12-26T12:46:21;17.37;;;10.40;;
22929;SDS011;11630;42.660;23.292;2022-12-26T12:49:07;20.07;;;11.03;;
22929;SDS011;11630;42.660;23.292;2022-12-26T12:54:39;15.70;;;9.17;;
22929;SDS011;11630;42.660;23.292;2022-12-26T13:00:13;14.73;;;8.83;;
22929;SDS011;11630;42.660;23.292;2022-12-26T13:08:39;13.63;;;7.43;;
22929;SDS011;11630;42.660;23.292;2022-12-26T13:13:59;12.90;;;7.40;;
22929;SDS011;11630;42.660;23.292;2022-12-26T13:16:32;11.07;;;6.63;;
22929;SDS011;11630;42.660;23.292;2022-12-26T13:19:15;12.77;;;6.87;;
22929;SDS011;11630;42.660;23.292;2022-12-26T13:21:43;12.23;;;7.10;;
22929;SDS011;11630;42.660;23.292;2022-12-26T13:24:18;11.23;;;6.40;;
22929;SDS011;11630;42.660;23.292;2022-12-26T13:27:06;9.57;;;6.10;;
22929;SDS011;11630;42.660;23.292;2022-12-26T13:29:40;13.60;;;6.97;;
22929;SDS011;11630;42.660;23.292;2022-12-26T13:32:18;9.60;;;5.70;;
22929;SDS011;11630;42.660;23.292;2022-12-26T13:34:51;9.73;;;6.07;;
22929;SDS011;11630;42.660;23.292;2022-12-26T13:40:25;16.63;;;9.80;;
22929;SDS011;11630;42.660;23.292;2022-12-26T13:43:02;20.50;;;10.40;;
22929;SDS011;11630;42.660;23.292;2022-12-26T13:45:55;16.17;;;10.33;;
22929;SDS011;11630;42.660;23.292;2022-12-26T13:51:02;24.30;;;12.63;;
22929;SDS011;11630;42.660;23.292;2022-12-26T13:53:43;25.47;;;12.93;;
22929;SDS011;11630;42.660;23.292;2022-12-26T14:01:50;26.23;;;14.97;;
22929;SDS011;11630;42.660;23.292;2022-12-26T14:07:37;33.53;;;15.17;;
22929;SDS011;11630;42.660;23.292;2022-12-26T14:10:18;23.40;;;13.90;;
22929;SDS011;11630;42.660;23.292;2022-12-26T14:15:50;28.67;;;16.57;;
22929;SDS011;11630;42.660;23.292;2022-12-26T14:21:32;31.10;;;14.33;;
22929;SDS011;11630;42.660;23.292;2022-12-26T14:24:06;26.00;;;14.37;;
22929;SDS011;11630;42.660;23.292;2022-12-26T14:26:42;27.17;;;15.03;;
22929;SDS011;11630;42.660;23.292;2022-12-26T14:29:26;18.70;;;13.70;;
22929;SDS011;11630;42.660;23.292;2022-12-26T14:34:54;23.20;;;13.00;;
22929;SDS011;11630;42.660;23.292;2022-12-26T14:45:47;23.20;;;13.33;;
22929;SDS011;11630;42.660;23.292;2022-12-26T14:54:12;20.27;;;10.07;;
22929;SDS011;11630;42.660;23.292;2022-12-26T14:56:38;14.03;;;8.50;;
22929;SDS011;11630;42.660;23.292;2022-12-26T14:59:19;20.37;;;9.00;;
22929;SDS011;11630;42.660;23.292;2022-12-26T15:02:00;22.13;;;9.50;;
22929;SDS011;11630;42.660;23.292;2022-12-26T15:07:37;26.53;;;12.40;;
22929;SDS011;11630;42.660;23.292;2022-12-26T15:10:32;22.17;;;12.53;;
22929;SDS011;11630;42.660;23.292;2022-12-26T15:16:01;27.47;;;11.53;;
22929;SDS011;11630;42.660;23.292;2022-12-26T15:24:50;25.77;;;11.47;;
22929;SDS011;11630;42.660;23.292;2022-12-26T15:33:17;22.03;;;10.43;;
22929;SDS011;11630;42.660;23.292;2022-12-26T15:35:53;15.10;;;10.43;;
22929;SDS011;11630;42.660;23.292;2022-12-26T15:44:07;26.50;;;13.67;;
22929;SDS011;11630;42.660;23.292;2022-12-26T15:46:41;41.23;;;19.13;;
22929;SDS011;11630;42.660;23.292;2022-12-26T15:52:08;30.17;;;13.53;;
22929;SDS011;11630;42.660;23.292;2022-12-26T15:57:30;23.67;;;13.47;;
22929;SDS011;11630;42.660;23.292;2022-12-26T16:00:19;24.97;;;11.90;;
22929;SDS011;11630;42.660;23.292;2022-12-26T16:03:03;39.03;;;13.03;;
22929;SDS011;11630;42.660;23.292;2022-12-26T16:11:20;31.17;;;14.23;;
22929;SDS011;11630;42.660;23.292;2022-12-26T16:13:55;25.63;;;12.73;;
22929;SDS011;11630;42.660;23.292;2022-12-26T16:16:29;25.23;;;14.53;;
22929;SDS011;11630;42.660;23.292;2022-12-26T16:19:13;23.17;;;14.43;;
22929;SDS011;11630;42.660;23.292;2022-12-26T16:22:00;33.33;;;14.13;;
22929;SDS011;11630;42.660;23.292;2022-12-26T16:24:47;42.97;;;15.10;;
22929;SDS011;11630;42.660;23.292;2022-12-26T16:27:20;32.53;;;14.97;;
22929;SDS011;11630;42.660;23.292;2022-12-26T16:30:03;32.77;;;15.50;;
22929;SDS011;11630;42.660;23.292;2022-12-26T16:32:33;26.33;;;14.60;;
22929;SDS011;11630;42.660;23.292;2022-12-26T16:35:01;35.33;;;15.07;;
22929;SDS011;11630;42.660;23.292;2022-12-26T16:37:33;29.13;;;14.27;;
22929;SDS011;11630;42.660;23.292;2022-12-26T16:43:05;23.60;;;12.00;;
22929;SDS011;11630;42.660;23.292;2022-12-26T16:45:36;29.43;;;13.47;;
22929;SDS011;11630;42.660;23.292;2022-12-26T16:48:11;28.87;;;14.90;;
22929;SDS011;11630;42.660;23.292;2022-12-26T16:50:44;31.60;;;15.47;;
22929;SDS011;11630;42.660;23.292;2022-12-26T16:53:22;24.80;;;13.17;;
22929;SDS011;11630;42.660;23.292;2022-12-26T16:55:57;29.57;;;16.07;;
22929;SDS011;11630;42.660;23.292;2022-12-26T16:58:46;44.53;;;21.57;;
22929;SDS011;11630;42.660;23.292;2022-12-26T17:01:21;31.03;;;17.40;;
22929;SDS011;11630;42.660;23.292;2022-12-26T17:03:55;51.40;;;26.10;;
22929;SDS011;11630;42.660;23.292;2022-12-26T17:06:29;41.83;;;21.63;;
22929;SDS011;11630;42.660;23.292;2022-12-26T17:09:10;39.10;;;19.27;;
22929;SDS011;11630;42.660;23.292;2022-12-26T17:11:52;31.57;;;18.30;;
22929;SDS011;11630;42.660;23.292;2022-12-26T17:14:24;35.17;;;16.77;;
22929;SDS011;11630;42.660;23.292;2022-12-26T17:16:55;27.03;;;16.97;;
22929;SDS011;11630;42.660;23.292;2022-12-26T17:19:27;30.77;;;16.03;;
22929;SDS011;11630;42.660;23.292;2022-12-26T17:24:51;30.53;;;14.63;;
22929;SDS011;11630;42.660;23.292;2022-12-26T17:27:23;35.23;;;15.83;;
22929;SDS011;11630;42.660;23.292;2022-12-26T17:30:29;29.53;;;17.73;;
22929;SDS011;11630;42.660;23.292;2022-12-26T17:32:49;29.10;;;16.17;;
22929;SDS011;11630;42.660;23.292;2022-12-26T17:35:22;33.27;;;16.30;;
22929;SDS011;11630;42.660;23.292;2022-12-26T17:37:56;29.20;;;15.73;;
22929;SDS011;11630;42.660;23.292;2022-12-26T17:40:31;31.27;;;19.67;;
22929;SDS011;11630;42.660;23.292;2022-12-26T17:43:05;27.80;;;16.30;;
22929;SDS011;11630;42.660;23.292;2022-12-26T17:45:37;33.80;;;18.30;;
22929;SDS011;11630;42.660;23.292;2022-12-26T17:48:10;28.57;;;17.47;;
22929;SDS011;11630;42.660;23.292;2022-12-26T17:50:42;25.67;;;14.97;;
22929;SDS011;11630;42.660;23.292;2022-12-26T17:56:05;24.97;;;14.23;;
22929;SDS011;11630;42.660;23.292;2022-12-26T17:58:36;24.47;;;13.53;;
22929;SDS011;11630;42.660;23.292;2022-12-26T18:01:07;22.73;;;12.57;;
22929;SDS011;11630;42.660;23.292;2022-12-26T18:03:38;22.03;;;13.30;;
22929;SDS011;11630;42.660;23.292;2022-12-26T18:06:13;23.77;;;13.20;;